»·PEaware :: N797ST KSNA-KSNA

N797ST :: KSNA-KSNA

FLIGHT INFORMATION

Flight Status: Arrived
Operator: Privately registered:
United States
More flights under this callsign
Pilot: Anonymous 27925 (27925)
Aircraft: CESSNA 172 SKYHAWK
(C172)
More flights by this aircraft type
Origin: KSNA John Wayne-Orange Co
United States
Destination: KSNA John Wayne-Orange Co
United States
More flights between these airports :: More routes between these airports
Route: +
File this flight plan on PilotEdge
Remarks:
Altitude:
(Current/Filed)
3,000ft
Speed:
(Current/Filed)
0kts
Departed: 09-Feb-20 11:43 AM
Arrived: 09-Feb-20 12:35 PM
Distance/Time
Traveled:
1nm/0:51
Distance/Time
To Go:
Arrived

Flight Plot

Page will automatically refresh every two minutes.


Map Options




Map Legend


Flown Route
Filed Route
Departure Airport
Arrival Airport
Navaid (VOR, NDB)
Fix

Horizontal Profiles

Position Reports

Time Latitude Longitude Heading Altitude Ground
Speed
09-Feb-20 11:17 33.667669 -117.870990 220 60ft 0kts
09-Feb-20 11:18 33.667624 -117.871090 280 60ft 1kts
09-Feb-20 11:19 33.667865 -117.871442 309 60ft 0kts
09-Feb-20 11:20 33.667865 -117.871442 309 60ft 0kts
09-Feb-20 11:21 33.667865 -117.871442 309 60ft 0kts
09-Feb-20 11:22 33.667865 -117.871442 309 60ft 0kts
09-Feb-20 11:23 33.669467 -117.870576 40 60ft 21kts
09-Feb-20 11:24 33.673351 -117.867615 49 60ft 7kts
09-Feb-20 11:25 33.673422 -117.867530 42 60ft 0kts
09-Feb-20 11:26 33.673421 -117.867531 42 60ft 0kts
09-Feb-20 11:27 33.673421 -117.867531 42 60ft 0kts
09-Feb-20 11:28 33.676360 -117.865669 27 60ft 21kts
09-Feb-20 11:29 33.680010 -117.863632 295 60ft 0kts
09-Feb-20 11:30 33.680009 -117.863632 296 60ft 0kts
09-Feb-20 11:31 33.680009 -117.863632 296 60ft 0kts
09-Feb-20 11:32 33.680009 -117.863632 296 60ft 0kts
09-Feb-20 11:33 33.680009 -117.863632 296 60ft 0kts
09-Feb-20 11:34 33.680009 -117.863632 296 60ft 0kts
09-Feb-20 11:35 33.680009 -117.863632 296 60ft 0kts
09-Feb-20 11:36 33.680009 -117.863632 296 60ft 0kts
09-Feb-20 11:37 33.680009 -117.863632 296 60ft 0kts
09-Feb-20 11:38 33.680009 -117.863632 296 60ft 0kts
09-Feb-20 11:39 33.680009 -117.863632 296 60ft 0kts
09-Feb-20 11:40 33.680009 -117.863632 296 60ft 0kts
09-Feb-20 11:41 33.680009 -117.863632 296 60ft 0kts
09-Feb-20 11:42 33.674788 -117.867383 200 197ft 73kts
09-Feb-20 11:43 33.658310 -117.864683 108 1207ft 78kts
09-Feb-20 11:44 33.658831 -117.837793 89 2165ft 86kts
09-Feb-20 11:45 33.660653 -117.811851 92 2104ft 78kts
09-Feb-20 11:46 33.659126 -117.784671 92 2192ft 84kts
09-Feb-20 11:47 33.661602 -117.757250 79 2201ft 80kts
09-Feb-20 11:48 33.662371 -117.730752 85 2134ft 84kts
09-Feb-20 11:49 33.666704 -117.706053 73 2236ft 78kts
09-Feb-20 11:50 33.659408 -117.681193 112 2737ft 87kts
09-Feb-20 11:51 33.650743 -117.654835 115 3183ft 81kts
09-Feb-20 11:52 33.636012 -117.634179 159 3314ft 84kts
09-Feb-20 11:53 33.623081 -117.653839 251 3410ft 86kts
09-Feb-20 11:54 33.622787 -117.655198 257 3414ft 86kts
09-Feb-20 11:55 33.622787 -117.655198 257 3414ft 86kts
09-Feb-20 11:56 33.622787 -117.655198 257 3414ft 86kts
09-Feb-20 11:57 33.622787 -117.655198 257 3414ft 86kts
09-Feb-20 11:58 33.622787 -117.655198 257 3414ft 86kts
09-Feb-20 11:59 33.622787 -117.655198 257 3414ft 86kts
09-Feb-20 12:00 33.622787 -117.655198 257 3414ft 86kts
09-Feb-20 12:01 33.622787 -117.655198 257 3414ft 86kts
09-Feb-20 12:02 33.622787 -117.655198 257 3414ft 86kts
09-Feb-20 12:03 33.622787 -117.655198 257 3414ft 86kts
09-Feb-20 12:04 33.622787 -117.655198 257 3414ft 86kts
09-Feb-20 12:05 33.622787 -117.655198 257 3414ft 86kts
09-Feb-20 12:06 33.622787 -117.655198 257 3414ft 86kts
09-Feb-20 12:07 33.622787 -117.655198 257 3414ft 86kts
09-Feb-20 12:08 33.622787 -117.655198 257 3414ft 86kts
09-Feb-20 12:09 33.622787 -117.655198 257 3414ft 86kts
09-Feb-20 12:10 33.622787 -117.655198 257 3414ft 86kts
09-Feb-20 12:11 33.622787 -117.655198 257 3414ft 86kts
09-Feb-20 12:12 33.622787 -117.655198 257 3414ft 86kts
09-Feb-20 12:13 33.622787 -117.655198 257 3414ft 86kts
09-Feb-20 12:14 33.622787 -117.655198 257 3414ft 86kts
09-Feb-20 12:15 33.622787 -117.655198 257 3414ft 86kts
09-Feb-20 12:16 33.622787 -117.655198 257 3414ft 86kts
09-Feb-20 12:17 33.622787 -117.655198 257 3414ft 86kts
09-Feb-20 12:19 33.622787 -117.655198 257 3414ft 86kts
09-Feb-20 12:20 33.622787 -117.655198 257 3414ft 86kts
09-Feb-20 12:21 33.622787 -117.655198 257 3414ft 86kts
09-Feb-20 12:22 33.621138 -117.665119 260 3061ft 97kts
09-Feb-20 12:23 33.621105 -117.665381 261 3063ft 96kts
09-Feb-20 12:24 33.620469 -117.691795 268 2892ft 82kts
09-Feb-20 12:25 33.618885 -117.719098 265 2953ft 82kts
09-Feb-20 12:26 33.615278 -117.746920 242 3172ft 87kts
09-Feb-20 12:27 33.609409 -117.775735 269 3086ft 101kts
09-Feb-20 12:28 33.611058 -117.794652 280 3092ft 78kts
09-Feb-20 12:29 33.617972 -117.814511 323 2883ft 91kts
09-Feb-20 12:30 33.638538 -117.831209 323 2016ft 87kts
09-Feb-20 12:31 33.657300 -117.849193 318 1171ft 85kts
09-Feb-20 12:32 33.675508 -117.851265 32 895ft 68kts
09-Feb-20 12:33 33.690097 -117.848394 300 665ft 62kts
09-Feb-20 12:34 33.682422 -117.862705 206 116ft 57kts
09-Feb-20 12:34 33.676860 -117.865666 117 60ft 0kts
09-Feb-20 12:36 33.676860 -117.865666 117 60ft 0kts
09-Feb-20 12:37 33.676860 -117.865666 117 60ft 0kts
09-Feb-20 12:38 33.676860 -117.865666 117 60ft 0kts
09-Feb-20 12:38 33.676860 -117.865666 117 60ft 0kts
09-Feb-20 12:39 33.676860 -117.865666 117 60ft 0kts
09-Feb-20 12:41 33.676860 -117.865666 117 60ft 0kts
09-Feb-20 12:42 33.676860 -117.865666 117 60ft 0kts
09-Feb-20 12:42 33.676860 -117.865666 117 60ft 0kts
09-Feb-20 12:43 33.673220 -117.867069 222 60ft 18kts
09-Feb-20 12:45 33.667714 -117.871298 138 60ft 8kts

Navigation Log

Ident Type
Flight plan parsing failed, navigation log unavailable